sensor_id;sensor_type;location;lat;lon;timestamp;P1;durP1;ratioP1;P2;durP2;ratioP2
10248;SDS011;5169;50.560;9.714;2023-07-02T00:00:02;373.37;;;142.60;;
10248;SDS011;5169;50.560;9.714;2023-07-02T00:02:33;374.93;;;146.53;;
10248;SDS011;5169;50.560;9.714;2023-07-02T00:04:59;374.83;;;142.10;;
10248;SDS011;5169;50.560;9.714;2023-07-02T00:07:24;373.27;;;141.87;;
10248;SDS011;5169;50.560;9.714;2023-07-02T00:09:56;376.63;;;148.17;;
10248;SDS011;5169;50.560;9.714;2023-07-02T00:12:22;375.20;;;146.00;;
10248;SDS011;5169;50.560;9.714;2023-07-02T00:14:50;374.60;;;147.83;;
10248;SDS011;5169;50.560;9.714;2023-07-02T00:17:21;374.03;;;146.03;;
10248;SDS011;5169;50.560;9.714;2023-07-02T00:19:46;373.63;;;144.30;;
10248;SDS011;5169;50.560;9.714;2023-07-02T00:22:16;372.30;;;143.20;;
10248;SDS011;5169;50.560;9.714;2023-07-02T00:24:48;375.37;;;141.53;;
10248;SDS011;5169;50.560;9.714;2023-07-02T00:27:15;374.40;;;145.23;;
10248;SDS011;5169;50.560;9.714;2023-07-02T00:29:41;374.50;;;140.30;;
10248;SDS011;5169;50.560;9.714;2023-07-02T00:32:12;373.43;;;143.63;;
10248;SDS011;5169;50.560;9.714;2023-07-02T00:34:40;374.53;;;144.13;;
10248;SDS011;5169;50.560;9.714;2023-07-02T00:37:12;377.00;;;147.63;;
10248;SDS011;5169;50.560;9.714;2023-07-02T00:39:37;375.77;;;146.23;;
10248;SDS011;5169;50.560;9.714;2023-07-02T00:42:03;375.87;;;150.67;;
10248;SDS011;5169;50.560;9.714;2023-07-02T00:44:29;373.27;;;142.53;;
10248;SDS011;5169;50.560;9.714;2023-07-02T00:46:58;376.37;;;148.00;;
10248;SDS011;5169;50.560;9.714;2023-07-02T00:49:23;374.20;;;144.90;;
10248;SDS011;5169;50.560;9.714;2023-07-02T00:51:52;379.10;;;143.87;;
10248;SDS011;5169;50.560;9.714;2023-07-02T00:54:17;372.13;;;140.50;;
10248;SDS011;5169;50.560;9.714;2023-07-02T00:56:46;374.57;;;145.87;;
10248;SDS011;5169;50.560;9.714;2023-07-02T00:59:12;376.33;;;147.37;;
10248;SDS011;5169;50.560;9.714;2023-07-02T01:01:39;374.80;;;145.30;;
10248;SDS011;5169;50.560;9.714;2023-07-02T01:04:10;372.17;;;140.13;;
10248;SDS011;5169;50.560;9.714;2023-07-02T01:06:38;374.33;;;140.57;;
10248;SDS011;5169;50.560;9.714;2023-07-02T01:09:06;375.80;;;140.70;;
10248;SDS011;5169;50.560;9.714;2023-07-02T01:11:53;374.73;;;138.83;;
10248;SDS011;5169;50.560;9.714;2023-07-02T01:17:12;371.53;;;136.33;;
10248;SDS011;5169;50.560;9.714;2023-07-02T01:19:54;375.00;;;135.90;;
10248;SDS011;5169;50.560;9.714;2023-07-02T01:22:25;374.63;;;136.07;;
10248;SDS011;5169;50.560;9.714;2023-07-02T01:24:52;370.70;;;130.80;;
10248;SDS011;5169;50.560;9.714;2023-07-02T01:27:19;370.03;;;133.00;;
10248;SDS011;5169;50.560;9.714;2023-07-02T01:29:52;370.17;;;131.93;;
10248;SDS011;5169;50.560;9.714;2023-07-02T01:32:18;371.23;;;130.17;;
10248;SDS011;5169;50.560;9.714;2023-07-02T01:34:50;371.80;;;132.93;;
10248;SDS011;5169;50.560;9.714;2023-07-02T01:37:18;374.10;;;138.67;;
10248;SDS011;5169;50.560;9.714;2023-07-02T01:39:47;371.27;;;135.90;;
10248;SDS011;5169;50.560;9.714;2023-07-02T01:42:14;374.90;;;143.70;;
10248;SDS011;5169;50.560;9.714;2023-07-02T01:44:43;370.27;;;133.23;;
10248;SDS011;5169;50.560;9.714;2023-07-02T01:47:13;372.37;;;139.83;;
10248;SDS011;5169;50.560;9.714;2023-07-02T01:49:40;372.03;;;141.67;;
10248;SDS011;5169;50.560;9.714;2023-07-02T01:52:11;369.23;;;136.53;;
10248;SDS011;5169;50.560;9.714;2023-07-02T01:54:37;371.10;;;138.13;;
10248;SDS011;5169;50.560;9.714;2023-07-02T01:57:02;370.70;;;134.80;;
10248;SDS011;5169;50.560;9.714;2023-07-02T01:59:35;372.03;;;138.20;;
10248;SDS011;5169;50.560;9.714;2023-07-02T02:02:05;373.87;;;137.90;;
10248;SDS011;5169;50.560;9.714;2023-07-02T02:04:31;374.30;;;141.23;;
10248;SDS011;5169;50.560;9.714;2023-07-02T02:07:05;372.43;;;137.13;;
10248;SDS011;5169;50.560;9.714;2023-07-02T02:09:40;375.23;;;136.60;;
10248;SDS011;5169;50.560;9.714;2023-07-02T02:12:06;372.10;;;135.47;;
10248;SDS011;5169;50.560;9.714;2023-07-02T02:14:40;369.83;;;131.70;;
10248;SDS011;5169;50.560;9.714;2023-07-02T02:17:11;370.90;;;132.60;;
10248;SDS011;5169;50.560;9.714;2023-07-02T02:19:36;373.90;;;128.90;;
10248;SDS011;5169;50.560;9.714;2023-07-02T02:22:04;370.83;;;135.63;;
10248;SDS011;5169;50.560;9.714;2023-07-02T02:24:38;370.47;;;130.33;;
10248;SDS011;5169;50.560;9.714;2023-07-02T02:27:04;370.47;;;132.30;;
10248;SDS011;5169;50.560;9.714;2023-07-02T02:29:29;368.87;;;127.57;;
10248;SDS011;5169;50.560;9.714;2023-07-02T02:31:55;370.20;;;133.27;;
10248;SDS011;5169;50.560;9.714;2023-07-02T02:34:26;370.50;;;128.43;;
10248;SDS011;5169;50.560;9.714;2023-07-02T02:36:53;372.17;;;132.80;;
10248;SDS011;5169;50.560;9.714;2023-07-02T02:39:24;372.97;;;137.57;;
10248;SDS011;5169;50.560;9.714;2023-07-02T02:41:54;371.63;;;133.57;;
10248;SDS011;5169;50.560;9.714;2023-07-02T02:44:19;373.03;;;134.43;;
10248;SDS011;5169;50.560;9.714;2023-07-02T02:46:48;368.57;;;130.53;;
10248;SDS011;5169;50.560;9.714;2023-07-02T02:49:16;372.00;;;132.97;;
10248;SDS011;5169;50.560;9.714;2023-07-02T02:51:42;370.47;;;130.83;;
10248;SDS011;5169;50.560;9.714;2023-07-02T02:54:15;367.77;;;129.10;;
10248;SDS011;5169;50.560;9.714;2023-07-02T02:56:42;372.70;;;134.50;;
10248;SDS011;5169;50.560;9.714;2023-07-02T02:59:14;370.20;;;132.97;;
10248;SDS011;5169;50.560;9.714;2023-07-02T03:01:42;368.83;;;129.57;;
10248;SDS011;5169;50.560;9.714;2023-07-02T03:04:07;369.40;;;128.57;;
10248;SDS011;5169;50.560;9.714;2023-07-02T03:06:39;368.00;;;123.30;;
10248;SDS011;5169;50.560;9.714;2023-07-02T03:09:07;369.23;;;127.97;;
10248;SDS011;5169;50.560;9.714;2023-07-02T03:11:40;367.97;;;129.87;;
10248;SDS011;5169;50.560;9.714;2023-07-02T03:14:08;371.70;;;126.57;;
10248;SDS011;5169;50.560;9.714;2023-07-02T03:16:36;371.60;;;133.10;;
10248;SDS011;5169;50.560;9.714;2023-07-02T03:19:04;369.97;;;130.40;;
10248;SDS011;5169;50.560;9.714;2023-07-02T03:21:41;371.13;;;129.43;;
10248;SDS011;5169;50.560;9.714;2023-07-02T03:24:15;374.27;;;131.20;;
10248;SDS011;5169;50.560;9.714;2023-07-02T03:26:42;367.07;;;122.30;;
10248;SDS011;5169;50.560;9.714;2023-07-02T03:29:08;373.17;;;137.93;;
10248;SDS011;5169;50.560;9.714;2023-07-02T03:31:53;371.07;;;132.57;;
10248;SDS011;5169;50.560;9.714;2023-07-02T03:34:18;370.30;;;125.20;;
10248;SDS011;5169;50.560;9.714;2023-07-02T03:36:49;370.63;;;131.97;;
10248;SDS011;5169;50.560;9.714;2023-07-02T03:39:15;370.87;;;132.43;;
10248;SDS011;5169;50.560;9.714;2023-07-02T03:41:43;372.57;;;136.43;;
10248;SDS011;5169;50.560;9.714;2023-07-02T03:44:15;369.40;;;132.47;;
10248;SDS011;5169;50.560;9.714;2023-07-02T03:46:40;371.80;;;132.93;;
10248;SDS011;5169;50.560;9.714;2023-07-02T03:49:13;374.70;;;138.77;;
10248;SDS011;5169;50.560;9.714;2023-07-02T03:51:39;369.93;;;132.33;;
10248;SDS011;5169;50.560;9.714;2023-07-02T03:54:07;373.20;;;132.97;;
10248;SDS011;5169;50.560;9.714;2023-07-02T03:56:32;371.00;;;132.47;;
10248;SDS011;5169;50.560;9.714;2023-07-02T03:59:04;369.10;;;129.50;;
10248;SDS011;5169;50.560;9.714;2023-07-02T04:01:29;368.77;;;127.60;;
10248;SDS011;5169;50.560;9.714;2023-07-02T04:03:56;370.50;;;126.03;;
10248;SDS011;5169;50.560;9.714;2023-07-02T04:06:25;368.47;;;125.33;;
10248;SDS011;5169;50.560;9.714;2023-07-02T04:08:51;369.47;;;123.70;;
10248;SDS011;5169;50.560;9.714;2023-07-02T04:11:17;368.13;;;121.43;;
10248;SDS011;5169;50.560;9.714;2023-07-02T04:13:42;365.97;;;118.50;;
10248;SDS011;5169;50.560;9.714;2023-07-02T04:16:13;365.50;;;120.50;;
10248;SDS011;5169;50.560;9.714;2023-07-02T04:18:41;367.27;;;118.13;;
10248;SDS011;5169;50.560;9.714;2023-07-02T04:21:07;365.43;;;120.43;;
10248;SDS011;5169;50.560;9.714;2023-07-02T04:23:33;368.37;;;120.70;;
10248;SDS011;5169;50.560;9.714;2023-07-02T04:26:04;368.40;;;121.87;;
10248;SDS011;5169;50.560;9.714;2023-07-02T04:28:31;366.77;;;120.57;;
10248;SDS011;5169;50.560;9.714;2023-07-02T04:30:56;368.20;;;124.03;;
10248;SDS011;5169;50.560;9.714;2023-07-02T04:33:22;370.57;;;128.73;;
10248;SDS011;5169;50.560;9.714;2023-07-02T04:36:04;370.27;;;128.43;;
10248;SDS011;5169;50.560;9.714;2023-07-02T04:38:33;372.30;;;128.73;;
10248;SDS011;5169;50.560;9.714;2023-07-02T04:41:05;371.70;;;134.17;;
10248;SDS011;5169;50.560;9.714;2023-07-02T04:43:34;371.77;;;134.20;;
10248;SDS011;5169;50.560;9.714;2023-07-02T04:46:05;372.73;;;134.47;;
10248;SDS011;5169;50.560;9.714;2023-07-02T04:48:32;370.20;;;131.03;;
10248;SDS011;5169;50.560;9.714;2023-07-02T04:51:03;377.77;;;133.40;;
10248;SDS011;5169;50.560;9.714;2023-07-02T04:53:33;368.90;;;130.90;;
10248;SDS011;5169;50.560;9.714;2023-07-02T04:56:06;370.70;;;132.53;;
10248;SDS011;5169;50.560;9.714;2023-07-02T04:58:34;370.57;;;135.77;;
10248;SDS011;5169;50.560;9.714;2023-07-02T05:01:03;372.13;;;136.10;;
10248;SDS011;5169;50.560;9.714;2023-07-02T05:03:29;369.03;;;133.13;;
10248;SDS011;5169;50.560;9.714;2023-07-02T05:05:55;372.30;;;134.07;;
10248;SDS011;5169;50.560;9.714;2023-07-02T05:08:21;371.00;;;132.57;;
10248;SDS011;5169;50.560;9.714;2023-07-02T05:10:46;368.93;;;132.23;;
10248;SDS011;5169;50.560;9.714;2023-07-02T05:13:18;370.83;;;133.47;;
10248;SDS011;5169;50.560;9.714;2023-07-02T05:15:51;365.53;;;126.37;;
10248;SDS011;5169;50.560;9.714;2023-07-02T05:18:16;370.80;;;133.23;;
10248;SDS011;5169;50.560;9.714;2023-07-02T05:20:42;368.67;;;127.57;;
10248;SDS011;5169;50.560;9.714;2023-07-02T05:23:07;372.53;;;134.67;;
10248;SDS011;5169;50.560;9.714;2023-07-02T05:25:33;373.43;;;138.40;;
10248;SDS011;5169;50.560;9.714;2023-07-02T05:28:07;369.57;;;133.43;;
10248;SDS011;5169;50.560;9.714;2023-07-02T05:30:33;371.07;;;138.00;;
10248;SDS011;5169;50.560;9.714;2023-07-02T05:32:59;369.80;;;131.50;;
10248;SDS011;5169;50.560;9.714;2023-07-02T05:35:40;370.90;;;132.27;;
10248;SDS011;5169;50.560;9.714;2023-07-02T05:38:10;371.50;;;132.67;;
10248;SDS011;5169;50.560;9.714;2023-07-02T05:40:43;368.47;;;127.10;;
10248;SDS011;5169;50.560;9.714;2023-07-02T05:43:18;370.53;;;135.47;;
10248;SDS011;5169;50.560;9.714;2023-07-02T05:45:46;373.20;;;133.93;;
10248;SDS011;5169;50.560;9.714;2023-07-02T05:48:15;371.93;;;132.73;;
10248;SDS011;5169;50.560;9.714;2023-07-02T05:50:40;371.33;;;131.57;;
10248;SDS011;5169;50.560;9.714;2023-07-02T05:53:06;372.33;;;135.17;;
10248;SDS011;5169;50.560;9.714;2023-07-02T05:55:32;366.93;;;134.57;;
10248;SDS011;5169;50.560;9.714;2023-07-02T05:58:05;365.17;;;122.10;;
10248;SDS011;5169;50.560;9.714;2023-07-02T06:00:31;361.83;;;121.67;;
10248;SDS011;5169;50.560;9.714;2023-07-02T06:02:59;364.53;;;123.60;;
10248;SDS011;5169;50.560;9.714;2023-07-02T06:05:33;364.27;;;118.97;;
10248;SDS011;5169;50.560;9.714;2023-07-02T06:07:59;364.13;;;120.97;;
10248;SDS011;5169;50.560;9.714;2023-07-02T06:10:27;366.33;;;121.20;;
10248;SDS011;5169;50.560;9.714;2023-07-02T06:12:57;363.87;;;117.40;;
10248;SDS011;5169;50.560;9.714;2023-07-02T06:15:23;358.00;;;112.53;;
10248;SDS011;5169;50.560;9.714;2023-07-02T06:17:57;362.00;;;113.67;;
10248;SDS011;5169;50.560;9.714;2023-07-02T06:20:22;366.43;;;115.33;;
10248;SDS011;5169;50.560;9.714;2023-07-02T06:22:51;360.83;;;109.93;;
10248;SDS011;5169;50.560;9.714;2023-07-02T06:25:19;359.03;;;111.80;;
10248;SDS011;5169;50.560;9.714;2023-07-02T06:27:56;368.43;;;115.70;;
10248;SDS011;5169;50.560;9.714;2023-07-02T06:30:23;362.53;;;111.63;;
10248;SDS011;5169;50.560;9.714;2023-07-02T06:32:57;358.53;;;105.23;;
10248;SDS011;5169;50.560;9.714;2023-07-02T06:35:23;358.93;;;109.27;;
10248;SDS011;5169;50.560;9.714;2023-07-02T06:37:57;363.03;;;114.57;;
10248;SDS011;5169;50.560;9.714;2023-07-02T06:40:29;359.33;;;111.80;;
10248;SDS011;5169;50.560;9.714;2023-07-02T06:42:57;367.37;;;118.13;;
10248;SDS011;5169;50.560;9.714;2023-07-02T06:45:23;366.60;;;124.63;;
10248;SDS011;5169;50.560;9.714;2023-07-02T06:47:54;368.83;;;129.10;;
10248;SDS011;5169;50.560;9.714;2023-07-02T06:50:22;370.90;;;130.97;;
10248;SDS011;5169;50.560;9.714;2023-07-02T06:52:51;370.80;;;127.70;;
10248;SDS011;5169;50.560;9.714;2023-07-02T06:55:19;367.37;;;126.13;;
10248;SDS011;5169;50.560;9.714;2023-07-02T06:57:51;369.03;;;127.90;;
10248;SDS011;5169;50.560;9.714;2023-07-02T07:00:18;367.77;;;119.57;;
10248;SDS011;5169;50.560;9.714;2023-07-02T07:02:43;366.03;;;126.93;;
10248;SDS011;5169;50.560;9.714;2023-07-02T07:05:09;370.27;;;127.37;;
10248;SDS011;5169;50.560;9.714;2023-07-02T07:07:35;369.13;;;124.63;;
10248;SDS011;5169;50.560;9.714;2023-07-02T07:10:04;366.03;;;126.00;;
10248;SDS011;5169;50.560;9.714;2023-07-02T07:12:30;366.10;;;121.63;;
10248;SDS011;5169;50.560;9.714;2023-07-02T07:14:55;368.27;;;123.03;;
10248;SDS011;5169;50.560;9.714;2023-07-02T07:17:23;370.67;;;123.90;;
10248;SDS011;5169;50.560;9.714;2023-07-02T07:20:05;369.03;;;126.47;;
10248;SDS011;5169;50.560;9.714;2023-07-02T07:22:31;366.17;;;126.30;;
10248;SDS011;5169;50.560;9.714;2023-07-02T07:24:58;375.30;;;125.87;;
10248;SDS011;5169;50.560;9.714;2023-07-02T07:27:28;370.10;;;122.70;;
10248;SDS011;5169;50.560;9.714;2023-07-02T07:29:53;367.97;;;119.57;;
10248;SDS011;5169;50.560;9.714;2023-07-02T07:32:23;366.07;;;122.50;;
10248;SDS011;5169;50.560;9.714;2023-07-02T07:34:52;368.53;;;124.70;;
10248;SDS011;5169;50.560;9.714;2023-07-02T07:37:17;369.00;;;123.90;;
10248;SDS011;5169;50.560;9.714;2023-07-02T07:39:43;372.97;;;132.53;;
10248;SDS011;5169;50.560;9.714;2023-07-02T07:42:11;368.10;;;121.67;;
10248;SDS011;5169;50.560;9.714;2023-07-02T07:44:36;368.20;;;129.77;;
10248;SDS011;5169;50.560;9.714;2023-07-02T07:47:05;365.77;;;123.93;;
10248;SDS011;5169;50.560;9.714;2023-07-02T07:49:31;365.40;;;119.80;;
10248;SDS011;5169;50.560;9.714;2023-07-02T07:51:56;372.83;;;124.80;;
10248;SDS011;5169;50.560;9.714;2023-07-02T07:54:22;368.03;;;121.13;;
10248;SDS011;5169;50.560;9.714;2023-07-02T07:56:53;374.73;;;123.43;;
10248;SDS011;5169;50.560;9.714;2023-07-02T07:59:18;366.27;;;124.37;;
10248;SDS011;5169;50.560;9.714;2023-07-02T08:01:46;370.50;;;119.97;;
10248;SDS011;5169;50.560;9.714;2023-07-02T08:04:20;365.00;;;118.13;;
10248;SDS011;5169;50.560;9.714;2023-07-02T08:06:48;371.53;;;124.87;;
10248;SDS011;5169;50.560;9.714;2023-07-02T08:09:22;366.77;;;121.20;;
10248;SDS011;5169;50.560;9.714;2023-07-02T08:11:48;371.37;;;124.80;;
10248;SDS011;5169;50.560;9.714;2023-07-02T08:14:16;367.13;;;120.33;;
10248;SDS011;5169;50.560;9.714;2023-07-02T08:16:45;369.63;;;123.60;;
10248;SDS011;5169;50.560;9.714;2023-07-02T08:19:18;364.70;;;122.53;;
10248;SDS011;5169;50.560;9.714;2023-07-02T08:21:45;366.53;;;125.07;;
10248;SDS011;5169;50.560;9.714;2023-07-02T08:24:10;369.23;;;128.07;;
10248;SDS011;5169;50.560;9.714;2023-07-02T08:26:43;368.17;;;125.30;;
10248;SDS011;5169;50.560;9.714;2023-07-02T08:29:13;368.90;;;118.37;;
10248;SDS011;5169;50.560;9.714;2023-07-02T08:31:42;364.83;;;120.40;;
10248;SDS011;5169;50.560;9.714;2023-07-02T08:34:08;367.37;;;116.80;;
10248;SDS011;5169;50.560;9.714;2023-07-02T08:36:36;369.17;;;123.30;;
10248;SDS011;5169;50.560;9.714;2023-07-02T08:39:05;369.03;;;125.40;;
10248;SDS011;5169;50.560;9.714;2023-07-02T08:41:41;371.03;;;134.70;;
10248;SDS011;5169;50.560;9.714;2023-07-02T08:44:09;374.27;;;137.73;;
10248;SDS011;5169;50.560;9.714;2023-07-02T08:46:43;375.77;;;138.27;;
10248;SDS011;5169;50.560;9.714;2023-07-02T08:49:12;380.57;;;143.63;;
10248;SDS011;5169;50.560;9.714;2023-07-02T08:51:41;380.93;;;147.73;;
10248;SDS011;5169;50.560;9.714;2023-07-02T08:54:10;379.27;;;147.30;;
10248;SDS011;5169;50.560;9.714;2023-07-02T08:56:44;385.20;;;155.57;;
10248;SDS011;5169;50.560;9.714;2023-07-02T08:59:19;383.00;;;154.10;;
10248;SDS011;5169;50.560;9.714;2023-07-02T09:01:56;382.80;;;155.83;;
10248;SDS011;5169;50.560;9.714;2023-07-02T09:04:22;385.20;;;152.43;;
10248;SDS011;5169;50.560;9.714;2023-07-02T09:07:08;391.07;;;169.60;;
10248;SDS011;5169;50.560;9.714;2023-07-02T09:09:44;389.57;;;162.57;;
10248;SDS011;5169;50.560;9.714;2023-07-02T09:12:29;389.93;;;167.83;;
10248;SDS011;5169;50.560;9.714;2023-07-02T09:15:00;395.53;;;182.37;;
10248;SDS011;5169;50.560;9.714;2023-07-02T09:17:35;393.57;;;180.57;;
10248;SDS011;5169;50.560;9.714;2023-07-02T09:20:08;401.60;;;201.33;;
10248;SDS011;5169;50.560;9.714;2023-07-02T09:22:37;404.90;;;205.40;;
10248;SDS011;5169;50.560;9.714;2023-07-02T09:25:19;405.97;;;202.60;;
10248;SDS011;5169;50.560;9.714;2023-07-02T09:27:47;398.90;;;196.90;;
10248;SDS011;5169;50.560;9.714;2023-07-02T09:30:15;401.43;;;194.33;;
10248;SDS011;5169;50.560;9.714;2023-07-02T09:32:46;396.47;;;180.30;;
10248;SDS011;5169;50.560;9.714;2023-07-02T09:35:12;397.87;;;186.43;;
10248;SDS011;5169;50.560;9.714;2023-07-02T09:37:45;394.70;;;168.87;;
10248;SDS011;5169;50.560;9.714;2023-07-02T09:40:14;392.57;;;169.47;;
10248;SDS011;5169;50.560;9.714;2023-07-02T09:42:50;390.90;;;163.50;;
10248;SDS011;5169;50.560;9.714;2023-07-02T09:45:20;387.83;;;164.20;;
10248;SDS011;5169;50.560;9.714;2023-07-02T09:47:47;389.53;;;167.03;;
10248;SDS011;5169;50.560;9.714;2023-07-02T09:50:18;393.27;;;174.53;;
10248;SDS011;5169;50.560;9.714;2023-07-02T09:52:46;399.47;;;188.23;;
10248;SDS011;5169;50.560;9.714;2023-07-02T09:55:13;398.90;;;187.23;;
10248;SDS011;5169;50.560;9.714;2023-07-02T09:57:46;407.87;;;207.47;;
10248;SDS011;5169;50.560;9.714;2023-07-02T10:00:12;410.50;;;221.93;;
10248;SDS011;5169;50.560;9.714;2023-07-02T10:02:47;409.03;;;212.20;;
10248;SDS011;5169;50.560;9.714;2023-07-02T10:08:13;406.13;;;207.27;;
10248;SDS011;5169;50.560;9.714;2023-07-02T10:10:57;411.67;;;233.63;;
10248;SDS011;5169;50.560;9.714;2023-07-02T10:13:34;415.97;;;237.93;;
10248;SDS011;5169;50.560;9.714;2023-07-02T10:16:08;412.83;;;233.23;;
10248;SDS011;5169;50.560;9.714;2023-07-02T10:18:36;410.50;;;231.93;;
10248;SDS011;5169;50.560;9.714;2023-07-02T10:21:15;410.90;;;231.30;;
10248;SDS011;5169;50.560;9.714;2023-07-02T10:23:47;415.13;;;250.27;;
10248;SDS011;5169;50.560;9.714;2023-07-02T10:26:21;420.13;;;264.23;;
10248;SDS011;5169;50.560;9.714;2023-07-02T10:28:58;425.33;;;266.03;;
10248;SDS011;5169;50.560;9.714;2023-07-02T10:31:31;431.47;;;289.23;;
10248;SDS011;5169;50.560;9.714;2023-07-02T10:33:59;426.03;;;278.90;;
10248;SDS011;5169;50.560;9.714;2023-07-02T10:36:25;425.97;;;274.03;;
10248;SDS011;5169;50.560;9.714;2023-07-02T10:38:51;419.30;;;257.73;;
10248;SDS011;5169;50.560;9.714;2023-07-02T10:41:25;420.23;;;263.97;;
10248;SDS011;5169;50.560;9.714;2023-07-02T10:44:08;428.47;;;284.73;;
10248;SDS011;5169;50.560;9.714;2023-07-02T10:46:46;437.83;;;309.20;;
10248;SDS011;5169;50.560;9.714;2023-07-02T10:49:19;430.20;;;293.27;;
10248;SDS011;5169;50.560;9.714;2023-07-02T10:51:56;430.67;;;292.13;;
10248;SDS011;5169;50.560;9.714;2023-07-02T10:54:37;427.47;;;281.00;;
10248;SDS011;5169;50.560;9.714;2023-07-02T10:57:12;427.97;;;283.33;;
10248;SDS011;5169;50.560;9.714;2023-07-02T10:59:45;428.47;;;274.23;;
10248;SDS011;5169;50.560;9.714;2023-07-02T11:02:14;420.67;;;261.00;;
10248;SDS011;5169;50.560;9.714;2023-07-02T11:04:48;433.10;;;290.17;;
10248;SDS011;5169;50.560;9.714;2023-07-02T11:07:22;430.90;;;290.83;;
10248;SDS011;5169;50.560;9.714;2023-07-02T11:09:50;450.77;;;315.67;;
10248;SDS011;5169;50.560;9.714;2023-07-02T11:12:32;437.77;;;322.30;;
10248;SDS011;5169;50.560;9.714;2023-07-02T11:15:09;434.43;;;319.77;;
10248;SDS011;5169;50.560;9.714;2023-07-02T11:17:38;430.37;;;304.37;;
10248;SDS011;5169;50.560;9.714;2023-07-02T11:20:10;432.53;;;302.63;;
10248;SDS011;5169;50.560;9.714;2023-07-02T11:22:37;432.57;;;306.53;;
10248;SDS011;5169;50.560;9.714;2023-07-02T11:25:09;427.60;;;294.00;;
10248;SDS011;5169;50.560;9.714;2023-07-02T11:27:36;432.73;;;308.17;;
10248;SDS011;5169;50.560;9.714;2023-07-02T11:30:02;439.53;;;340.70;;
10248;SDS011;5169;50.560;9.714;2023-07-02T11:32:34;441.33;;;341.90;;
10248;SDS011;5169;50.560;9.714;2023-07-02T11:35:11;439.80;;;339.77;;
10248;SDS011;5169;50.560;9.714;2023-07-02T11:37:37;438.97;;;346.70;;
10248;SDS011;5169;50.560;9.714;2023-07-02T11:40:08;439.70;;;342.60;;
10248;SDS011;5169;50.560;9.714;2023-07-02T11:42:34;440.00;;;330.20;;
10248;SDS011;5169;50.560;9.714;2023-07-02T11:44:59;432.20;;;311.77;;
10248;SDS011;5169;50.560;9.714;2023-07-02T11:47:25;424.73;;;279.20;;
10248;SDS011;5169;50.560;9.714;2023-07-02T11:49:52;431.50;;;285.20;;
10248;SDS011;5169;50.560;9.714;2023-07-02T11:52:24;424.37;;;276.70;;
10248;SDS011;5169;50.560;9.714;2023-07-02T11:54:56;427.03;;;290.70;;
10248;SDS011;5169;50.560;9.714;2023-07-02T11:57:22;426.00;;;284.40;;
10248;SDS011;5169;50.560;9.714;2023-07-02T11:59:49;426.63;;;280.63;;
10248;SDS011;5169;50.560;9.714;2023-07-02T12:02:24;428.23;;;279.30;;
10248;SDS011;5169;50.560;9.714;2023-07-02T12:04:49;425.47;;;278.57;;
10248;SDS011;5169;50.560;9.714;2023-07-02T12:07:15;421.80;;;273.10;;
10248;SDS011;5169;50.560;9.714;2023-07-02T12:09:48;426.23;;;275.70;;
10248;SDS011;5169;50.560;9.714;2023-07-02T12:12:14;423.00;;;265.23;;
10248;SDS011;5169;50.560;9.714;2023-07-02T12:14:47;420.73;;;266.27;;
10248;SDS011;5169;50.560;9.714;2023-07-02T12:17:12;418.63;;;256.47;;
10248;SDS011;5169;50.560;9.714;2023-07-02T12:19:39;425.57;;;283.13;;
10248;SDS011;5169;50.560;9.714;2023-07-02T12:22:11;427.43;;;299.67;;
10248;SDS011;5169;50.560;9.714;2023-07-02T12:24:40;425.33;;;288.43;;
10248;SDS011;5169;50.560;9.714;2023-07-02T12:27:21;426.67;;;290.63;;
10248;SDS011;5169;50.560;9.714;2023-07-02T12:29:46;426.13;;;290.37;;
10248;SDS011;5169;50.560;9.714;2023-07-02T12:32:15;422.60;;;282.93;;
10248;SDS011;5169;50.560;9.714;2023-07-02T12:34:48;422.00;;;274.43;;
10248;SDS011;5169;50.560;9.714;2023-07-02T12:37:17;421.90;;;272.33;;
10248;SDS011;5169;50.560;9.714;2023-07-02T12:39:47;422.57;;;263.90;;
10248;SDS011;5169;50.560;9.714;2023-07-02T12:42:15;419.43;;;255.37;;
10248;SDS011;5169;50.560;9.714;2023-07-02T12:44:40;425.00;;;272.90;;
10248;SDS011;5169;50.560;9.714;2023-07-02T12:47:12;422.20;;;265.30;;
10248;SDS011;5169;50.560;9.714;2023-07-02T12:49:37;422.57;;;266.90;;
10248;SDS011;5169;50.560;9.714;2023-07-02T12:52:05;421.10;;;263.87;;
10248;SDS011;5169;50.560;9.714;2023-07-02T12:54:34;423.93;;;267.27;;
10248;SDS011;5169;50.560;9.714;2023-07-02T12:56:59;423.23;;;263.77;;
10248;SDS011;5169;50.560;9.714;2023-07-02T12:59:25;421.13;;;265.67;;
10248;SDS011;5169;50.560;9.714;2023-07-02T13:01:50;416.97;;;251.73;;
10248;SDS011;5169;50.560;9.714;2023-07-02T13:04:16;416.27;;;256.17;;
10248;SDS011;5169;50.560;9.714;2023-07-02T13:06:46;414.67;;;257.23;;
10248;SDS011;5169;50.560;9.714;2023-07-02T13:09:12;419.90;;;272.97;;
10248;SDS011;5169;50.560;9.714;2023-07-02T13:11:37;421.37;;;266.13;;
10248;SDS011;5169;50.560;9.714;2023-07-02T13:14:03;416.87;;;267.83;;
10248;SDS011;5169;50.560;9.714;2023-07-02T13:16:31;412.30;;;251.17;;
10248;SDS011;5169;50.560;9.714;2023-07-02T13:19:02;418.47;;;268.77;;
10248;SDS011;5169;50.560;9.714;2023-07-02T13:21:30;422.27;;;285.80;;
10248;SDS011;5169;50.560;9.714;2023-07-02T13:23:59;416.27;;;270.10;;
10248;SDS011;5169;50.560;9.714;2023-07-02T13:26:24;417.10;;;264.93;;
10248;SDS011;5169;50.560;9.714;2023-07-02T13:28:50;419.13;;;270.47;;
10248;SDS011;5169;50.560;9.714;2023-07-02T13:31:18;421.20;;;283.07;;
10248;SDS011;5169;50.560;9.714;2023-07-02T13:33:50;420.13;;;288.20;;
10248;SDS011;5169;50.560;9.714;2023-07-02T13:36:17;418.00;;;276.37;;
10248;SDS011;5169;50.560;9.714;2023-07-02T13:38:47;422.47;;;281.17;;
10248;SDS011;5169;50.560;9.714;2023-07-02T13:41:12;419.33;;;279.27;;
10248;SDS011;5169;50.560;9.714;2023-07-02T13:43:38;420.80;;;279.67;;
10248;SDS011;5169;50.560;9.714;2023-07-02T13:46:04;419.13;;;275.83;;
10248;SDS011;5169;50.560;9.714;2023-07-02T13:48:29;417.43;;;261.40;;
10248;SDS011;5169;50.560;9.714;2023-07-02T13:50:55;414.57;;;261.83;;
10248;SDS011;5169;50.560;9.714;2023-07-02T13:53:29;414.20;;;266.80;;
10248;SDS011;5169;50.560;9.714;2023-07-02T13:56:04;413.73;;;253.00;;
10248;SDS011;5169;50.560;9.714;2023-07-02T14:01:26;412.97;;;247.47;;
10248;SDS011;5169;50.560;9.714;2023-07-02T14:03:54;416.10;;;269.47;;
10248;SDS011;5169;50.560;9.714;2023-07-02T14:06:26;416.40;;;266.90;;
10248;SDS011;5169;50.560;9.714;2023-07-02T14:08:57;420.90;;;283.37;;
10248;SDS011;5169;50.560;9.714;2023-07-02T14:11:23;419.40;;;281.30;;
10248;SDS011;5169;50.560;9.714;2023-07-02T14:13:53;424.13;;;278.40;;
10248;SDS011;5169;50.560;9.714;2023-07-02T14:16:21;422.23;;;276.03;;
10248;SDS011;5169;50.560;9.714;2023-07-02T14:18:52;423.40;;;286.93;;
10248;SDS011;5169;50.560;9.714;2023-07-02T14:21:20;424.47;;;284.93;;
10248;SDS011;5169;50.560;9.714;2023-07-02T14:23:45;423.20;;;282.87;;
10248;SDS011;5169;50.560;9.714;2023-07-02T14:26:18;421.97;;;287.30;;
10248;SDS011;5169;50.560;9.714;2023-07-02T14:28:44;416.87;;;267.00;;